sensor_id;sensor_type;location;lat;lon;timestamp;P1;durP1;ratioP1;P2;durP2;ratioP2
83103;SDS011;72975;48.134;11.630;2023-11-22T00:02:19;16.88;;;9.20;;
83103;SDS011;72975;48.134;11.630;2023-11-22T00:04:46;15.77;;;9.77;;
83103;SDS011;72975;48.134;11.630;2023-11-22T00:07:13;18.55;;;10.10;;
83103;SDS011;72975;48.134;11.630;2023-11-22T00:09:40;17.90;;;9.88;;
83103;SDS011;72975;48.134;11.630;2023-11-22T00:12:08;18.42;;;9.63;;
83103;SDS011;72975;48.134;11.630;2023-11-22T00:14:35;16.27;;;9.13;;
83103;SDS011;72975;48.134;11.630;2023-11-22T00:17:03;14.40;;;8.32;;
83103;SDS011;72975;48.134;11.630;2023-11-22T00:19:30;16.00;;;9.68;;
83103;SDS011;72975;48.134;11.630;2023-11-22T00:21:58;15.35;;;9.43;;
83103;SDS011;72975;48.134;11.630;2023-11-22T00:24:25;17.15;;;10.07;;
83103;SDS011;72975;48.134;11.630;2023-11-22T00:26:52;15.98;;;9.75;;
83103;SDS011;72975;48.134;11.630;2023-11-22T00:29:19;16.52;;;8.57;;
83103;SDS011;72975;48.134;11.630;2023-11-22T00:31:46;16.02;;;10.35;;
83103;SDS011;72975;48.134;11.630;2023-11-22T00:34:13;16.05;;;9.30;;
83103;SDS011;72975;48.134;11.630;2023-11-22T00:36:45;18.13;;;10.05;;
83103;SDS011;72975;48.134;11.630;2023-11-22T00:39:12;18.98;;;10.10;;
83103;SDS011;72975;48.134;11.630;2023-11-22T00:41:39;18.85;;;10.57;;
83103;SDS011;72975;48.134;11.630;2023-11-22T00:44:08;14.40;;;8.55;;
83103;SDS011;72975;48.134;11.630;2023-11-22T00:46:35;16.95;;;9.82;;
83103;SDS011;72975;48.134;11.630;2023-11-22T00:49:04;18.35;;;9.93;;
83103;SDS011;72975;48.134;11.630;2023-11-22T00:51:32;19.35;;;9.68;;
83103;SDS011;72975;48.134;11.630;2023-11-22T00:53:59;17.33;;;9.80;;
83103;SDS011;72975;48.134;11.630;2023-11-22T00:56:27;17.85;;;9.55;;
83103;SDS011;72975;48.134;11.630;2023-11-22T00:58:54;16.20;;;8.60;;
83103;SDS011;72975;48.134;11.630;2023-11-22T01:01:21;18.50;;;8.80;;
83103;SDS011;72975;48.134;11.630;2023-11-22T01:03:48;17.38;;;10.25;;
83103;SDS011;72975;48.134;11.630;2023-11-22T01:06:16;17.05;;;9.70;;
83103;SDS011;72975;48.134;11.630;2023-11-22T01:08:44;17.08;;;9.73;;
83103;SDS011;72975;48.134;11.630;2023-11-22T01:11:11;22.30;;;10.07;;
83103;SDS011;72975;48.134;11.630;2023-11-22T01:13:38;15.98;;;9.05;;
83103;SDS011;72975;48.134;11.630;2023-11-22T01:16:09;17.02;;;9.30;;
83103;SDS011;72975;48.134;11.630;2023-11-22T01:18:36;16.90;;;10.07;;
83103;SDS011;72975;48.134;11.630;2023-11-22T01:21:05;16.83;;;9.27;;
83103;SDS011;72975;48.134;11.630;2023-11-22T01:23:32;15.32;;;9.27;;
83103;SDS011;72975;48.134;11.630;2023-11-22T01:26:00;19.23;;;10.23;;
83103;SDS011;72975;48.134;11.630;2023-11-22T01:28:29;15.73;;;9.25;;
83103;SDS011;72975;48.134;11.630;2023-11-22T01:31:00;13.93;;;8.15;;
83103;SDS011;72975;48.134;11.630;2023-11-22T01:33:29;16.10;;;9.23;;
83103;SDS011;72975;48.134;11.630;2023-11-22T01:35:58;15.32;;;9.50;;
83103;SDS011;72975;48.134;11.630;2023-11-22T01:38:25;16.85;;;9.52;;
83103;SDS011;72975;48.134;11.630;2023-11-22T01:40:52;14.75;;;8.93;;
83103;SDS011;72975;48.134;11.630;2023-11-22T01:43:19;16.27;;;8.70;;
83103;SDS011;72975;48.134;11.630;2023-11-22T01:45:50;14.68;;;9.10;;
83103;SDS011;72975;48.134;11.630;2023-11-22T01:48:18;15.43;;;8.25;;
83103;SDS011;72975;48.134;11.630;2023-11-22T01:50:45;15.32;;;8.88;;
83103;SDS011;72975;48.134;11.630;2023-11-22T01:53:12;14.20;;;8.18;;
83103;SDS011;72975;48.134;11.630;2023-11-22T01:55:42;14.60;;;7.43;;
83103;SDS011;72975;48.134;11.630;2023-11-22T01:58:10;11.25;;;7.25;;
83103;SDS011;72975;48.134;11.630;2023-11-22T02:00:43;12.05;;;7.28;;
83103;SDS011;72975;48.134;11.630;2023-11-22T02:03:16;14.50;;;8.27;;
83103;SDS011;72975;48.134;11.630;2023-11-22T02:05:44;11.50;;;7.05;;
83103;SDS011;72975;48.134;11.630;2023-11-22T02:08:12;11.02;;;6.78;;
83103;SDS011;72975;48.134;11.630;2023-11-22T02:10:40;7.45;;;4.07;;
83103;SDS011;72975;48.134;11.630;2023-11-22T02:13:08;9.38;;;5.35;;
83103;SDS011;72975;48.134;11.630;2023-11-22T02:15:37;9.63;;;5.95;;
83103;SDS011;72975;48.134;11.630;2023-11-22T02:18:04;11.02;;;6.10;;
83103;SDS011;72975;48.134;11.630;2023-11-22T02:20:39;9.43;;;5.93;;
83103;SDS011;72975;48.134;11.630;2023-11-22T02:23:08;8.80;;;5.80;;
83103;SDS011;72975;48.134;11.630;2023-11-22T02:25:36;9.07;;;5.57;;
83103;SDS011;72975;48.134;11.630;2023-11-22T02:28:03;7.15;;;3.80;;
83103;SDS011;72975;48.134;11.630;2023-11-22T02:30:30;8.15;;;4.75;;
83103;SDS011;72975;48.134;11.630;2023-11-22T02:32:58;6.82;;;4.07;;
83103;SDS011;72975;48.134;11.630;2023-11-22T02:35:25;5.75;;;3.45;;
83103;SDS011;72975;48.134;11.630;2023-11-22T02:37:53;8.30;;;4.57;;
83103;SDS011;72975;48.134;11.630;2023-11-22T02:40:20;6.20;;;4.15;;
83103;SDS011;72975;48.134;11.630;2023-11-22T02:42:49;6.30;;;3.92;;
83103;SDS011;72975;48.134;11.630;2023-11-22T02:45:17;5.30;;;3.47;;
83103;SDS011;72975;48.134;11.630;2023-11-22T02:47:49;4.38;;;2.70;;
83103;SDS011;72975;48.134;11.630;2023-11-22T02:50:16;5.07;;;2.78;;
83103;SDS011;72975;48.134;11.630;2023-11-22T02:52:43;5.47;;;3.80;;
83103;SDS011;72975;48.134;11.630;2023-11-22T02:55:10;4.80;;;3.25;;
83103;SDS011;72975;48.134;11.630;2023-11-22T02:57:37;5.20;;;3.40;;
83103;SDS011;72975;48.134;11.630;2023-11-22T03:00:08;5.78;;;3.80;;
83103;SDS011;72975;48.134;11.630;2023-11-22T03:02:39;6.20;;;3.95;;
83103;SDS011;72975;48.134;11.630;2023-11-22T03:05:11;5.70;;;3.92;;
83103;SDS011;72975;48.134;11.630;2023-11-22T03:07:39;6.20;;;3.60;;
83103;SDS011;72975;48.134;11.630;2023-11-22T03:10:08;5.72;;;4.25;;
83103;SDS011;72975;48.134;11.630;2023-11-22T03:12:35;6.15;;;3.70;;
83103;SDS011;72975;48.134;11.630;2023-11-22T03:15:02;5.15;;;3.33;;
83103;SDS011;72975;48.134;11.630;2023-11-22T03:17:30;5.95;;;3.78;;
83103;SDS011;72975;48.134;11.630;2023-11-22T03:19:59;6.72;;;3.47;;
83103;SDS011;72975;48.134;11.630;2023-11-22T03:22:28;6.10;;;3.53;;
83103;SDS011;72975;48.134;11.630;2023-11-22T03:27:28;7.32;;;4.30;;
83103;SDS011;72975;48.134;11.630;2023-11-22T03:29:56;5.47;;;4.05;;
83103;SDS011;72975;48.134;11.630;2023-11-22T03:32:23;6.85;;;4.25;;
83103;SDS011;72975;48.134;11.630;2023-11-22T03:34:50;5.15;;;3.58;;
83103;SDS011;72975;48.134;11.630;2023-11-22T03:37:17;5.43;;;3.42;;
83103;SDS011;72975;48.134;11.630;2023-11-22T03:39:44;6.88;;;3.72;;
83103;SDS011;72975;48.134;11.630;2023-11-22T03:42:15;5.78;;;3.63;;
83103;SDS011;72975;48.134;11.630;2023-11-22T03:44:44;6.25;;;3.75;;
83103;SDS011;72975;48.134;11.630;2023-11-22T03:47:11;6.45;;;3.72;;
83103;SDS011;72975;48.134;11.630;2023-11-22T03:49:42;4.90;;;2.78;;
83103;SDS011;72975;48.134;11.630;2023-11-22T03:52:10;6.78;;;3.65;;
83103;SDS011;72975;48.134;11.630;2023-11-22T03:54:38;6.63;;;3.72;;
83103;SDS011;72975;48.134;11.630;2023-11-22T03:57:05;5.90;;;3.70;;
83103;SDS011;72975;48.134;11.630;2023-11-22T03:59:34;6.18;;;4.35;;
83103;SDS011;72975;48.134;11.630;2023-11-22T04:02:01;5.80;;;4.05;;
83103;SDS011;72975;48.134;11.630;2023-11-22T04:04:28;6.00;;;3.90;;
83103;SDS011;72975;48.134;11.630;2023-11-22T04:06:56;6.32;;;3.67;;
83103;SDS011;72975;48.134;11.630;2023-11-22T04:09:23;6.15;;;3.42;;
83103;SDS011;72975;48.134;11.630;2023-11-22T04:11:51;6.35;;;3.97;;
83103;SDS011;72975;48.134;11.630;2023-11-22T04:14:18;6.20;;;4.18;;
83103;SDS011;72975;48.134;11.630;2023-11-22T04:16:47;5.32;;;3.53;;
83103;SDS011;72975;48.134;11.630;2023-11-22T04:19:14;5.45;;;4.07;;
83103;SDS011;72975;48.134;11.630;2023-11-22T04:21:42;6.78;;;3.85;;
83103;SDS011;72975;48.134;11.630;2023-11-22T04:24:09;6.28;;;3.53;;
83103;SDS011;72975;48.134;11.630;2023-11-22T04:26:38;6.35;;;4.15;;
83103;SDS011;72975;48.134;11.630;2023-11-22T04:29:05;7.85;;;4.65;;
83103;SDS011;72975;48.134;11.630;2023-11-22T04:31:32;7.25;;;4.22;;
83103;SDS011;72975;48.134;11.630;2023-11-22T04:33:59;7.35;;;5.10;;
83103;SDS011;72975;48.134;11.630;2023-11-22T04:36:27;6.63;;;4.10;;
83103;SDS011;72975;48.134;11.630;2023-11-22T04:38:53;7.32;;;3.90;;
83103;SDS011;72975;48.134;11.630;2023-11-22T04:41:20;6.20;;;4.22;;
83103;SDS011;72975;48.134;11.630;2023-11-22T04:43:49;7.55;;;4.20;;
83103;SDS011;72975;48.134;11.630;2023-11-22T04:46:16;6.03;;;3.80;;
83103;SDS011;72975;48.134;11.630;2023-11-22T04:48:42;5.93;;;3.85;;
83103;SDS011;72975;48.134;11.630;2023-11-22T04:51:11;7.05;;;3.63;;
83103;SDS011;72975;48.134;11.630;2023-11-22T04:53:38;6.53;;;3.55;;
83103;SDS011;72975;48.134;11.630;2023-11-22T04:56:05;6.45;;;3.85;;
83103;SDS011;72975;48.134;11.630;2023-11-22T04:58:33;6.75;;;3.67;;
83103;SDS011;72975;48.134;11.630;2023-11-22T05:01:00;7.07;;;3.85;;
83103;SDS011;72975;48.134;11.630;2023-11-22T05:03:28;6.30;;;4.22;;
83103;SDS011;72975;48.134;11.630;2023-11-22T05:05:55;6.82;;;4.00;;
83103;SDS011;72975;48.134;11.630;2023-11-22T05:08:22;7.30;;;4.13;;
83103;SDS011;72975;48.134;11.630;2023-11-22T05:10:49;7.40;;;3.03;;
83103;SDS011;72975;48.134;11.630;2023-11-22T05:13:18;5.45;;;3.70;;
83103;SDS011;72975;48.134;11.630;2023-11-22T05:15:45;8.07;;;3.60;;
83103;SDS011;72975;48.134;11.630;2023-11-22T05:18:13;6.80;;;4.03;;
83103;SDS011;72975;48.134;11.630;2023-11-22T05:20:40;6.15;;;3.50;;
83103;SDS011;72975;48.134;11.630;2023-11-22T05:23:07;5.20;;;3.35;;
83103;SDS011;72975;48.134;11.630;2023-11-22T05:25:34;7.30;;;4.22;;
83103;SDS011;72975;48.134;11.630;2023-11-22T05:28:01;6.50;;;3.22;;
83103;SDS011;72975;48.134;11.630;2023-11-22T05:30:29;7.05;;;4.03;;
83103;SDS011;72975;48.134;11.630;2023-11-22T05:32:57;5.90;;;4.18;;
83103;SDS011;72975;48.134;11.630;2023-11-22T05:35:24;6.70;;;4.22;;
83103;SDS011;72975;48.134;11.630;2023-11-22T05:37:51;6.55;;;3.90;;
83103;SDS011;72975;48.134;11.630;2023-11-22T05:40:18;6.47;;;4.40;;
83103;SDS011;72975;48.134;11.630;2023-11-22T05:42:45;5.35;;;3.53;;
83103;SDS011;72975;48.134;11.630;2023-11-22T05:45:12;6.60;;;4.30;;
83103;SDS011;72975;48.134;11.630;2023-11-22T05:47:39;8.00;;;3.97;;
83103;SDS011;72975;48.134;11.630;2023-11-22T05:50:07;4.55;;;2.60;;
83103;SDS011;72975;48.134;11.630;2023-11-22T05:52:34;5.97;;;4.22;;
83103;SDS011;72975;48.134;11.630;2023-11-22T05:55:01;6.78;;;3.60;;
83103;SDS011;72975;48.134;11.630;2023-11-22T05:57:30;5.32;;;3.17;;
83103;SDS011;72975;48.134;11.630;2023-11-22T05:59:57;5.93;;;3.95;;
83103;SDS011;72975;48.134;11.630;2023-11-22T06:02:24;5.75;;;3.13;;
83103;SDS011;72975;48.134;11.630;2023-11-22T06:04:51;4.82;;;3.00;;
83103;SDS011;72975;48.134;11.630;2023-11-22T06:07:18;5.60;;;3.30;;
83103;SDS011;72975;48.134;11.630;2023-11-22T06:09:45;5.22;;;3.53;;
83103;SDS011;72975;48.134;11.630;2023-11-22T06:12:12;5.15;;;3.55;;
83103;SDS011;72975;48.134;11.630;2023-11-22T06:14:39;6.38;;;4.00;;
83103;SDS011;72975;48.134;11.630;2023-11-22T06:17:06;5.50;;;3.50;;
83103;SDS011;72975;48.134;11.630;2023-11-22T06:19:33;5.63;;;3.22;;
83103;SDS011;72975;48.134;11.630;2023-11-22T06:22:00;4.32;;;2.80;;
83103;SDS011;72975;48.134;11.630;2023-11-22T06:24:28;5.40;;;3.58;;
83103;SDS011;72975;48.134;11.630;2023-11-22T06:26:55;6.00;;;4.07;;
83103;SDS011;72975;48.134;11.630;2023-11-22T06:29:22;5.93;;;3.65;;
83103;SDS011;72975;48.134;11.630;2023-11-22T06:31:49;6.97;;;4.88;;
83103;SDS011;72975;48.134;11.630;2023-11-22T06:34:15;6.53;;;4.30;;
83103;SDS011;72975;48.134;11.630;2023-11-22T06:36:43;6.13;;;3.33;;
83103;SDS011;72975;48.134;11.630;2023-11-22T06:39:10;7.38;;;3.90;;
83103;SDS011;72975;48.134;11.630;2023-11-22T06:41:42;7.95;;;4.75;;
83103;SDS011;72975;48.134;11.630;2023-11-22T06:44:11;5.85;;;4.30;;
83103;SDS011;72975;48.134;11.630;2023-11-22T06:46:38;7.57;;;4.65;;
83103;SDS011;72975;48.134;11.630;2023-11-22T06:49:05;6.78;;;4.18;;
83103;SDS011;72975;48.134;11.630;2023-11-22T06:51:32;7.55;;;4.60;;
83103;SDS011;72975;48.134;11.630;2023-11-22T06:53:59;11.23;;;4.63;;
83103;SDS011;72975;48.134;11.630;2023-11-22T06:56:27;7.80;;;5.28;;
83103;SDS011;72975;48.134;11.630;2023-11-22T06:58:55;6.50;;;4.18;;
83103;SDS011;72975;48.134;11.630;2023-11-22T07:01:23;8.13;;;4.70;;
83103;SDS011;72975;48.134;11.630;2023-11-22T07:03:53;6.95;;;3.95;;
83103;SDS011;72975;48.134;11.630;2023-11-22T07:06:21;8.70;;;5.72;;
83103;SDS011;72975;48.134;11.630;2023-11-22T07:08:48;8.18;;;4.82;;
83103;SDS011;72975;48.134;11.630;2023-11-22T07:11:22;10.30;;;5.55;;
83103;SDS011;72975;48.134;11.630;2023-11-22T07:13:50;8.50;;;5.55;;
83103;SDS011;72975;48.134;11.630;2023-11-22T07:16:18;8.23;;;5.05;;
83103;SDS011;72975;48.134;11.630;2023-11-22T07:18:46;8.50;;;5.07;;
83103;SDS011;72975;48.134;11.630;2023-11-22T07:21:13;7.38;;;4.85;;
83103;SDS011;72975;48.134;11.630;2023-11-22T07:23:40;9.45;;;6.07;;
83103;SDS011;72975;48.134;11.630;2023-11-22T07:26:07;8.43;;;5.32;;
83103;SDS011;72975;48.134;11.630;2023-11-22T07:28:34;8.30;;;5.57;;
83103;SDS011;72975;48.134;11.630;2023-11-22T07:31:06;9.68;;;5.65;;
83103;SDS011;72975;48.134;11.630;2023-11-22T07:33:35;8.98;;;5.13;;
83103;SDS011;72975;48.134;11.630;2023-11-22T07:36:02;8.82;;;5.65;;
83103;SDS011;72975;48.134;11.630;2023-11-22T07:38:29;7.32;;;5.43;;
83103;SDS011;72975;48.134;11.630;2023-11-22T07:40:58;8.25;;;5.32;;
83103;SDS011;72975;48.134;11.630;2023-11-22T07:43:25;7.80;;;4.80;;
83103;SDS011;72975;48.134;11.630;2023-11-22T07:45:53;7.93;;;5.55;;
83103;SDS011;72975;48.134;11.630;2023-11-22T07:48:20;8.88;;;4.85;;
83103;SDS011;72975;48.134;11.630;2023-11-22T07:50:49;9.20;;;5.22;;
83103;SDS011;72975;48.134;11.630;2023-11-22T07:53:16;8.43;;;5.45;;
83103;SDS011;72975;48.134;11.630;2023-11-22T07:55:44;9.07;;;5.93;;
83103;SDS011;72975;48.134;11.630;2023-11-22T07:58:11;8.20;;;5.65;;
83103;SDS011;72975;48.134;11.630;2023-11-22T08:00:38;7.72;;;4.10;;
83103;SDS011;72975;48.134;11.630;2023-11-22T08:03:08;8.43;;;5.38;;
83103;SDS011;72975;48.134;11.630;2023-11-22T08:05:35;8.10;;;5.70;;
83103;SDS011;72975;48.134;11.630;2023-11-22T08:08:06;7.35;;;4.85;;
83103;SDS011;72975;48.134;11.630;2023-11-22T08:10:34;9.40;;;5.85;;
83103;SDS011;72975;48.134;11.630;2023-11-22T08:13:02;9.27;;;5.63;;
83103;SDS011;72975;48.134;11.630;2023-11-22T08:15:29;11.30;;;6.30;;
83103;SDS011;72975;48.134;11.630;2023-11-22T08:17:59;9.45;;;6.22;;
83103;SDS011;72975;48.134;11.630;2023-11-22T08:20:27;9.63;;;6.22;;
83103;SDS011;72975;48.134;11.630;2023-11-22T08:22:54;10.77;;;6.53;;
83103;SDS011;72975;48.134;11.630;2023-11-22T08:25:21;9.93;;;6.50;;
83103;SDS011;72975;48.134;11.630;2023-11-22T08:27:48;10.82;;;6.20;;
83103;SDS011;72975;48.134;11.630;2023-11-22T08:30:16;9.63;;;6.15;;
83103;SDS011;72975;48.134;11.630;2023-11-22T08:32:44;9.68;;;6.45;;
83103;SDS011;72975;48.134;11.630;2023-11-22T08:35:21;11.13;;;7.07;;
83103;SDS011;72975;48.134;11.630;2023-11-22T08:37:48;11.95;;;6.45;;
83103;SDS011;72975;48.134;11.630;2023-11-22T08:40:16;10.00;;;6.30;;
83103;SDS011;72975;48.134;11.630;2023-11-22T08:42:47;11.45;;;6.82;;
83103;SDS011;72975;48.134;11.630;2023-11-22T08:45:14;9.60;;;5.65;;
83103;SDS011;72975;48.134;11.630;2023-11-22T08:47:42;9.68;;;6.10;;
83103;SDS011;72975;48.134;11.630;2023-11-22T08:50:09;10.93;;;6.95;;
83103;SDS011;72975;48.134;11.630;2023-11-22T08:52:42;12.02;;;6.25;;
83103;SDS011;72975;48.134;11.630;2023-11-22T08:55:11;9.25;;;5.90;;
83103;SDS011;72975;48.134;11.630;2023-11-22T08:57:38;11.07;;;6.63;;
83103;SDS011;72975;48.134;11.630;2023-11-22T09:00:07;10.98;;;7.18;;
83103;SDS011;72975;48.134;11.630;2023-11-22T09:02:38;9.90;;;5.72;;
83103;SDS011;72975;48.134;11.630;2023-11-22T09:05:08;10.40;;;6.05;;
83103;SDS011;72975;48.134;11.630;2023-11-22T09:07:36;8.95;;;5.78;;
83103;SDS011;72975;48.134;11.630;2023-11-22T09:10:04;11.38;;;5.70;;
83103;SDS011;72975;48.134;11.630;2023-11-22T09:12:36;10.98;;;7.47;;
83103;SDS011;72975;48.134;11.630;2023-11-22T09:15:08;10.90;;;6.65;;
83103;SDS011;72975;48.134;11.630;2023-11-22T09:17:40;10.27;;;5.97;;
83103;SDS011;72975;48.134;11.630;2023-11-22T09:20:10;10.65;;;6.03;;
83103;SDS011;72975;48.134;11.630;2023-11-22T09:22:44;11.15;;;6.72;;
83103;SDS011;72975;48.134;11.630;2023-11-22T09:25:16;9.10;;;5.63;;
83103;SDS011;72975;48.134;11.630;2023-11-22T09:27:47;8.95;;;5.88;;
83103;SDS011;72975;48.134;11.630;2023-11-22T09:30:21;9.98;;;5.65;;
83103;SDS011;72975;48.134;11.630;2023-11-22T09:33:17;8.98;;;5.65;;
83103;SDS011;72975;48.134;11.630;2023-11-22T09:35:45;8.35;;;5.50;;
83103;SDS011;72975;48.134;11.630;2023-11-22T09:38:14;9.90;;;6.45;;
83103;SDS011;72975;48.134;11.630;2023-11-22T09:43:12;7.90;;;5.47;;
83103;SDS011;72975;48.134;11.630;2023-11-22T09:45:48;6.95;;;4.72;;
83103;SDS011;72975;48.134;11.630;2023-11-22T09:48:22;7.85;;;5.55;;
83103;SDS011;72975;48.134;11.630;2023-11-22T09:53:44;8.10;;;6.18;;
83103;SDS011;72975;48.134;11.630;2023-11-22T09:56:22;7.63;;;5.38;;
83103;SDS011;72975;48.134;11.630;2023-11-22T09:58:54;7.22;;;4.65;;
83103;SDS011;72975;48.134;11.630;2023-11-22T10:01:23;7.72;;;5.10;;
83103;SDS011;72975;48.134;11.630;2023-11-22T10:03:56;8.85;;;6.25;;
83103;SDS011;72975;48.134;11.630;2023-11-22T10:06:26;9.30;;;6.10;;
83103;SDS011;72975;48.134;11.630;2023-11-22T10:08:56;8.45;;;6.03;;
83103;SDS011;72975;48.134;11.630;2023-11-22T10:11:23;8.07;;;5.65;;
83103;SDS011;72975;48.134;11.630;2023-11-22T10:13:51;8.68;;;4.75;;
83103;SDS011;72975;48.134;11.630;2023-11-22T10:16:18;8.50;;;6.10;;
83103;SDS011;72975;48.134;11.630;2023-11-22T10:18:47;8.07;;;5.20;;
83103;SDS011;72975;48.134;11.630;2023-11-22T10:21:23;7.97;;;4.97;;
83103;SDS011;72975;48.134;11.630;2023-11-22T10:23:54;7.30;;;5.55;;
83103;SDS011;72975;48.134;11.630;2023-11-22T10:26:30;7.07;;;4.97;;
83103;SDS011;72975;48.134;11.630;2023-11-22T10:28:57;7.88;;;5.22;;
83103;SDS011;72975;48.134;11.630;2023-11-22T10:31:25;6.82;;;4.95;;
83103;SDS011;72975;48.134;11.630;2023-11-22T10:33:53;7.80;;;5.53;;
83103;SDS011;72975;48.134;11.630;2023-11-22T10:36:23;7.95;;;5.45;;
83103;SDS011;72975;48.134;11.630;2023-11-22T10:38:50;7.57;;;5.28;;
83103;SDS011;72975;48.134;11.630;2023-11-22T10:41:19;14.35;;;6.97;;
83103;SDS011;72975;48.134;11.630;2023-11-22T10:43:48;35.10;;;12.02;;
83103;SDS011;72975;48.134;11.630;2023-11-22T10:46:26;10.77;;;6.95;;
83103;SDS011;72975;48.134;11.630;2023-11-22T10:48:56;9.00;;;5.63;;
83103;SDS011;72975;48.134;11.630;2023-11-22T10:51:25;10.10;;;5.45;;
83103;SDS011;72975;48.134;11.630;2023-11-22T10:54:01;7.10;;;5.03;;
83103;SDS011;72975;48.134;11.630;2023-11-22T10:56:40;6.57;;;4.80;;
83103;SDS011;72975;48.134;11.630;2023-11-22T10:59:15;7.88;;;4.97;;
83103;SDS011;72975;48.134;11.630;2023-11-22T11:01:49;8.52;;;5.53;;
83103;SDS011;72975;48.134;11.630;2023-11-22T11:04:19;6.60;;;4.00;;
83103;SDS011;72975;48.134;11.630;2023-11-22T11:06:54;7.47;;;5.43;;
83103;SDS011;72975;48.134;11.630;2023-11-22T11:09:22;10.02;;;6.30;;
83103;SDS011;72975;48.134;11.630;2023-11-22T11:11:55;7.63;;;4.68;;
83103;SDS011;72975;48.134;11.630;2023-11-22T11:14:23;7.32;;;5.05;;
83103;SDS011;72975;48.134;11.630;2023-11-22T11:16:52;7.00;;;5.53;;
83103;SDS011;72975;48.134;11.630;2023-11-22T11:19:22;6.90;;;4.97;;
83103;SDS011;72975;48.134;11.630;2023-11-22T11:21:50;8.02;;;5.63;;
83103;SDS011;72975;48.134;11.630;2023-11-22T11:24:17;7.28;;;5.80;;
83103;SDS011;72975;48.134;11.630;2023-11-22T11:26:48;10.70;;;5.88;;
83103;SDS011;72975;48.134;11.630;2023-11-22T11:29:32;6.43;;;5.22;;
83103;SDS011;72975;48.134;11.630;2023-11-22T11:32:03;7.07;;;4.80;;
83103;SDS011;72975;48.134;11.630;2023-11-22T11:34:30;7.35;;;5.40;;
83103;SDS011;72975;48.134;11.630;2023-11-22T11:36:58;7.13;;;5.38;;
83103;SDS011;72975;48.134;11.630;2023-11-22T11:39:27;8.45;;;5.43;;
83103;SDS011;72975;48.134;11.630;2023-11-22T11:42:07;6.75;;;5.30;;
83103;SDS011;72975;48.134;11.630;2023-11-22T11:47:31;6.40;;;4.88;;
83103;SDS011;72975;48.134;11.630;2023-11-22T11:49:59;9.48;;;5.40;;
83103;SDS011;72975;48.134;11.630;2023-11-22T11:52:26;6.35;;;5.00;;
83103;SDS011;72975;48.134;11.630;2023-11-22T11:54:53;6.38;;;4.30;;
83103;SDS011;72975;48.134;11.630;2023-11-22T11:57:21;6.22;;;4.43;;
83103;SDS011;72975;48.134;11.630;2023-11-22T11:59:48;6.57;;;4.68;;
83103;SDS011;72975;48.134;11.630;2023-11-22T12:02:15;6.88;;;5.15;;
83103;SDS011;72975;48.134;11.630;2023-11-22T12:04:43;7.35;;;4.82;;
83103;SDS011;72975;48.134;11.630;2023-11-22T12:07:11;7.88;;;4.90;;
83103;SDS011;72975;48.134;11.630;2023-11-22T12:09:39;8.80;;;4.50;;
83103;SDS011;72975;48.134;11.630;2023-11-22T12:12:07;7.75;;;4.43;;
83103;SDS011;72975;48.134;11.630;2023-11-22T12:14:34;6.38;;;4.53;;
83103;SDS011;72975;48.134;11.630;2023-11-22T12:17:03;6.95;;;4.43;;
83103;SDS011;72975;48.134;11.630;2023-11-22T12:19:30;21.10;;;13.27;;
83103;SDS011;72975;48.134;11.630;2023-11-22T12:21:57;7.72;;;5.80;;
83103;SDS011;72975;48.134;11.630;2023-11-22T12:24:25;26.23;;;14.98;;
83103;SDS011;72975;48.134;11.630;2023-11-22T12:26:52;9.07;;;5.63;;
83103;SDS011;72975;48.134;11.630;2023-11-22T12:29:21;8.68;;;5.30;;
83103;SDS011;72975;48.134;11.630;2023-11-22T12:31:50;6.85;;;4.82;;
83103;SDS011;72975;48.134;11.630;2023-11-22T12:34:23;7.25;;;4.63;;
83103;SDS011;72975;48.134;11.630;2023-11-22T12:36:52;8.13;;;4.75;;
83103;SDS011;72975;48.134;11.630;2023-11-22T12:39:20;10.45;;;4.82;;
83103;SDS011;72975;48.134;11.630;2023-11-22T12:41:48;6.32;;;4.18;;
83103;SDS011;72975;48.134;11.630;2023-11-22T12:44:31;7.55;;;4.20;;
83103;SDS011;72975;48.134;11.630;2023-11-22T12:47:13;6.68;;;4.80;;
83103;SDS011;72975;48.134;11.630;2023-11-22T12:49:43;6.75;;;4.57;;
83103;SDS011;72975;48.134;11.630;2023-11-22T12:52:16;7.97;;;4.07;;
83103;SDS011;72975;48.134;11.630;2023-11-22T12:54:43;5.95;;;3.55;;
83103;SDS011;72975;48.134;11.630;2023-11-22T12:57:13;7.63;;;4.28;;
83103;SDS011;72975;48.134;11.630;2023-11-22T12:59:44;7.55;;;3.95;;
83103;SDS011;72975;48.134;11.630;2023-11-22T13:02:11;6.50;;;4.63;;
83103;SDS011;72975;48.134;11.630;2023-11-22T13:04:39;6.68;;;4.65;;
83103;SDS011;72975;48.134;11.630;2023-11-22T13:07:06;6.43;;;4.50;;
83103;SDS011;72975;48.134;11.630;2023-11-22T13:09:33;7.32;;;5.05;;
83103;SDS011;72975;48.134;11.630;2023-11-22T13:12:01;6.72;;;4.70;;
83103;SDS011;72975;48.134;11.630;2023-11-22T13:14:44;5.72;;;4.00;;
83103;SDS011;72975;48.134;11.630;2023-11-22T13:17:11;5.88;;;3.72;;
83103;SDS011;72975;48.134;11.630;2023-11-22T13:19:40;6.32;;;3.70;;
83103;SDS011;72975;48.134;11.630;2023-11-22T13:22:09;7.22;;;3.70;;
83103;SDS011;72975;48.134;11.630;2023-11-22T13:24:37;7.22;;;4.00;;
83103;SDS011;72975;48.134;11.630;2023-11-22T13:27:03;5.75;;;3.97;;
83103;SDS011;72975;48.134;11.630;2023-11-22T13:29:31;6.18;;;3.88;;
83103;SDS011;72975;48.134;11.630;2023-11-22T13:31:58;6.70;;;3.58;;
83103;SDS011;72975;48.134;11.630;2023-11-22T13:34:25;6.25;;;3.45;;
83103;SDS011;72975;48.134;11.630;2023-11-22T13:36:52;5.22;;;3.55;;
83103;SDS011;72975;48.134;11.630;2023-11-22T13:39:20;6.70;;;3.63;;
83103;SDS011;72975;48.134;11.630;2023-11-22T13:41:47;6.25;;;3.78;;
83103;SDS011;72975;48.134;11.630;2023-11-22T13:44:16;6.07;;;3.78;;
83103;SDS011;72975;48.134;11.630;2023-11-22T13:46:44;8.40;;;3.85;;
83103;SDS011;72975;48.134;11.630;2023-11-22T13:49:11;6.57;;;3.50;;
83103;SDS011;72975;48.134;11.630;2023-11-22T13:51:38;7.80;;;4.22;;
83103;SDS011;72975;48.134;11.630;2023-11-22T13:54:05;6.93;;;4.15;;
83103;SDS011;72975;48.134;11.630;2023-11-22T13:56:33;5.72;;;3.08;;
83103;SDS011;72975;48.134;11.630;2023-11-22T13:59:00;6.70;;;4.10;;
83103;SDS011;72975;48.134;11.630;2023-11-22T14:01:27;6.45;;;3.50;;
83103;SDS011;72975;48.134;11.630;2023-11-22T14:03:54;7.20;;;3.38;;
83103;SDS011;72975;48.134;11.630;2023-11-22T14:06:23;7.00;;;4.22;;
83103;SDS011;72975;48.134;11.630;2023-11-22T14:08:50;7.38;;;4.05;;
83103;SDS011;72975;48.134;11.630;2023-11-22T14:11:17;5.72;;;3.33;;
83103;SDS011;72975;48.134;11.630;2023-11-22T14:13:47;6.05;;;3.40;;
83103;SDS011;72975;48.134;11.630;2023-11-22T14:16:14;5.85;;;3.20;;
83103;SDS011;72975;48.134;11.630;2023-11-22T14:18:42;6.03;;;3.53;;
83103;SDS011;72975;48.134;11.630;2023-11-22T14:21:09;6.43;;;3.75;;
83103;SDS011;72975;48.134;11.630;2023-11-22T14:23:36;5.82;;;3.30;;
83103;SDS011;72975;48.134;11.630;2023-11-22T14:26:07;5.70;;;3.50;;
83103;SDS011;72975;48.134;11.630;2023-11-22T14:28:38;6.13;;;3.78;;
83103;SDS011;72975;48.134;11.630;2023-11-22T14:31:06;7.07;;;4.22;;
83103;SDS011;72975;48.134;11.630;2023-11-22T14:33:40;5.90;;;3.60;;
83103;SDS011;72975;48.134;11.630;2023-11-22T14:36:07;6.00;;;4.05;;
83103;SDS011;72975;48.134;11.630;2023-11-22T14:38:34;6.82;;;3.92;;
83103;SDS011;72975;48.134;11.630;2023-11-22T14:41:01;7.47;;;4.10;;
83103;SDS011;72975;48.134;11.630;2023-11-22T14:43:29;7.65;;;3.78;;
83103;SDS011;72975;48.134;11.630;2023-11-22T14:46:02;7.32;;;4.22;;
83103;SDS011;72975;48.134;11.630;2023-11-22T14:48:29;6.75;;;3.90;;
83103;SDS011;72975;48.134;11.630;2023-11-22T14:50:58;7.72;;;4.57;;